Jones Mills, Pennsylvania
Current Conditions -  °F | °C
As of 2:15 AM on Friday 19 Dec 2014 (Local Time) from K2G9 Reporting Station
Haze Haze  
Wind Chill: 14°   Ceiling: 1000
Heat Index: 23°   Visibility: 5mi
Dew Point: 21°   Wind: 8mph
Humidity: 93%   Direction: 270°W
Pressure: 30.05"   Gusts: NA
Location:  40.09°N, 79.34°W
Report Text: K2G9 190715Z AUTO 27007KT 5SM BR OVC010 M05/M06 A3005 RMK AO2
Loading
Personal Weather Stations






























Interactive Weather Map New forecast layout! Learn more

10-Day Weather Forecast

Advertisements
Track Severe Weather on mobile